< < Back
Terminal Aerodrome Forecast


Current Version              Previous Versions:   1  2  3  4  5  6  7  8  9  

Terminal Aerodrome Forecast

764
FTUS42 KFFC 042343
TAFATL
TAF
KATL 042343Z 0500/0606 21015G25KT P6SM SCT040 BKN060
     FM050200 20010KT P6SM BKN012
     FM050600 22008KT 5SM -SHRA BR OVC006
     FM050900 25007KT 2SM -SHRA BR OVC004
     FM051200 32014KT 2SM -RA OVC005
     FM052000 33012G22KT 6SM BR OVC012
     FM060200 32012KT P6SM BKN020=

Latest METAR

624
SAUS70 KWBC 051200
MTRATL
METAR KATL 051152Z 30006KT 10SM BKN007 OVC016 18/17 A2989 RMK AO2 SLP114
60010 70011 T01780167 10194 20178 53007


USA.gov is the U.S. government's official web portal to all federal, state and local government web resources and services.